createdAt,value
2023-10-19T00:00:01.567Z,12.03
2023-10-19T00:02:28.193Z,11.99
2023-10-19T00:04:54.944Z,12.03
2023-10-19T00:07:21.624Z,11.78
2023-10-19T00:09:48.281Z,11.55
2023-10-19T00:12:14.972Z,11.70
2023-10-19T00:14:41.591Z,11.78
2023-10-19T00:17:08.243Z,11.98
2023-10-19T00:19:34.959Z,11.97
2023-10-19T00:22:01.596Z,11.88
2023-10-19T00:24:28.215Z,11.82
2023-10-19T00:26:54.888Z,11.64
2023-10-19T00:29:21.534Z,11.70
2023-10-19T00:31:48.214Z,11.62
2023-10-19T00:34:14.970Z,11.57
2023-10-19T00:36:41.592Z,11.79
2023-10-19T00:39:08.211Z,12.07
2023-10-19T00:41:34.868Z,12.02
2023-10-19T00:44:01.489Z,11.98
2023-10-19T00:46:28.174Z,12.03
2023-10-19T00:48:54.886Z,12.09
2023-10-19T00:51:21.501Z,12.17
2023-10-19T00:53:48.112Z,12.04
2023-10-19T00:56:14.784Z,11.86
2023-10-19T00:58:41.422Z,11.89
2023-10-19T01:01:08.131Z,11.78
2023-10-19T01:03:34.891Z,11.86
2023-10-19T01:06:01.615Z,11.91
2023-10-19T01:08:28.231Z,11.92
2023-10-19T01:10:54.911Z,11.98
2023-10-19T01:13:21.600Z,11.93
2023-10-19T01:15:48.262Z,11.94
2023-10-19T01:18:14.949Z,11.98
2023-10-19T01:20:41.595Z,11.95
2023-10-19T01:23:08.188Z,11.91
2023-10-19T01:25:34.895Z,11.96
2023-10-19T01:28:01.526Z,11.94
2023-10-19T01:30:28.163Z,11.94
2023-10-19T01:32:54.901Z,11.92
2023-10-19T01:35:21.506Z,11.85
2023-10-19T01:37:48.171Z,11.72
2023-10-19T01:40:14.937Z,11.54
2023-10-19T01:42:41.589Z,11.70
2023-10-19T01:45:08.176Z,11.73
2023-10-19T01:47:34.988Z,11.75
2023-10-19T01:50:01.649Z,11.59
2023-10-19T01:52:28.293Z,11.55
2023-10-19T01:54:54.977Z,11.70
2023-10-19T01:57:21.622Z,11.66
2023-10-19T01:59:48.310Z,11.58
2023-10-19T02:02:15.060Z,11.57
2023-10-19T02:04:41.802Z,11.47
2023-10-19T02:07:08.430Z,11.23
2023-10-19T02:09:35.081Z,11.31
2023-10-19T02:12:01.685Z,11.34
2023-10-19T02:14:28.300Z,11.31
2023-10-19T02:16:55.084Z,11.23
2023-10-19T02:19:21.856Z,11.27
2023-10-19T02:21:48.495Z,11.38
2023-10-19T02:24:15.176Z,11.45
2023-10-19T02:26:41.789Z,11.44
2023-10-19T02:29:08.413Z,11.33
2023-10-19T02:31:35.155Z,11.41
2023-10-19T02:34:01.778Z,11.28
2023-10-19T02:36:28.394Z,11.33
2023-10-19T02:38:55.078Z,11.28
2023-10-19T02:41:21.693Z,11.35
2023-10-19T02:43:48.331Z,11.29
2023-10-19T02:46:15.128Z,11.22
2023-10-19T02:48:41.844Z,11.31
2023-10-19T02:51:08.472Z,11.19
2023-10-19T02:53:35.141Z,11.05
2023-10-19T02:56:01.744Z,11.19
2023-10-19T02:58:28.401Z,10.88
2023-10-19T03:00:55.139Z,10.69
2023-10-19T03:03:21.933Z,10.89
2023-10-19T03:05:48.827Z,10.95
2023-10-19T03:08:15.566Z,11.13
2023-10-19T03:10:42.374Z,11.03
2023-10-19T03:13:09.005Z,11.05
2023-10-19T03:15:35.711Z,10.98
2023-10-19T03:18:02.330Z,10.80
2023-10-19T03:20:28.995Z,10.91
2023-10-19T03:22:55.695Z,10.75
2023-10-19T03:25:22.406Z,10.72
2023-10-19T03:27:49.061Z,10.68
2023-10-19T03:30:15.764Z,10.79
2023-10-19T03:32:42.440Z,10.79
2023-10-19T03:35:09.127Z,10.75
2023-10-19T03:37:35.859Z,10.73
2023-10-19T03:40:02.524Z,10.86
2023-10-19T03:42:29.304Z,10.88
2023-10-19T03:44:56.014Z,10.93
2023-10-19T03:47:22.704Z,10.62
2023-10-19T03:49:49.457Z,10.73
2023-10-19T03:52:16.187Z,10.86
2023-10-19T03:54:42.851Z,10.88
2023-10-19T03:57:09.510Z,10.94
2023-10-19T03:59:36.260Z,10.98
2023-10-19T04:02:02.944Z,10.61
2023-10-19T04:04:29.734Z,10.41
2023-10-19T04:06:57.258Z,10.63
2023-10-19T04:09:23.921Z,10.41
2023-10-19T04:11:50.567Z,10.57
2023-10-19T04:14:17.290Z,10.67
2023-10-19T04:16:44.050Z,10.78
2023-10-19T04:19:10.706Z,10.80
2023-10-19T04:21:37.457Z,10.86
2023-10-19T04:24:04.116Z,10.84
2023-10-19T04:26:30.716Z,10.69
2023-10-19T04:28:57.441Z,10.69
2023-10-19T04:31:24.084Z,10.61
2023-10-19T04:33:50.704Z,10.71
2023-10-19T04:36:17.412Z,10.72
2023-10-19T04:38:44.059Z,10.74
2023-10-19T04:41:10.858Z,10.74
2023-10-19T04:43:37.656Z,10.78
2023-10-19T04:46:04.371Z,10.68
2023-10-19T04:48:31.023Z,10.72
2023-10-19T04:50:57.686Z,10.72
2023-10-19T04:53:24.342Z,10.30
2023-10-19T04:55:53.208Z,10.36
2023-10-19T04:58:19.980Z,10.47
2023-10-19T05:00:46.653Z,10.21
2023-10-19T05:03:13.304Z,10.23
2023-10-19T05:05:40.058Z,10.30
2023-10-19T05:08:06.684Z,10.40
2023-10-19T05:10:33.349Z,10.53
2023-10-19T05:13:00.008Z,10.24
2023-10-19T05:15:26.667Z,10.25
2023-10-19T05:17:53.296Z,10.39
2023-10-19T05:20:19.959Z,10.31
2023-10-19T05:22:46.616Z,10.17
2023-10-19T05:25:13.245Z,10.35
2023-10-19T05:27:39.959Z,10.38
2023-10-19T05:30:06.566Z,10.35
2023-10-19T05:32:33.303Z,10.45
2023-10-19T05:35:01.289Z,10.41
2023-10-19T05:37:28.175Z,10.38
2023-10-19T05:39:54.787Z,10.37
2023-10-19T05:42:21.489Z,10.61
2023-10-19T05:44:48.129Z,10.67
2023-10-19T05:47:14.807Z,10.74
2023-10-19T05:49:41.551Z,10.64
2023-10-19T05:52:08.209Z,10.68
2023-10-19T05:54:34.823Z,10.50
2023-10-19T05:57:01.519Z,10.55
2023-10-19T05:59:28.193Z,10.82
2023-10-19T06:01:54.930Z,10.68
2023-10-19T06:04:22.028Z,10.61
2023-10-19T06:06:48.844Z,10.80
2023-10-19T06:09:15.452Z,10.54
2023-10-19T06:11:42.126Z,10.76
2023-10-19T06:14:08.734Z,10.92
2023-10-19T06:16:35.533Z,10.93
2023-10-19T06:19:02.499Z,11.04
2023-10-19T06:21:29.268Z,10.89
2023-10-19T06:23:55.931Z,11.40
2023-10-19T06:26:22.631Z,11.73
2023-10-19T06:28:49.259Z,11.59
2023-10-19T06:31:15.870Z,11.61
2023-10-19T06:33:42.879Z,11.92
2023-10-19T06:36:09.642Z,12.14
2023-10-19T06:38:36.270Z,12.10
2023-10-19T06:41:02.974Z,12.40
2023-10-19T06:43:31.831Z,11.86
2023-10-19T06:46:00.308Z,12.33
2023-10-19T06:48:27.002Z,12.60
2023-10-19T06:50:53.592Z,12.68
2023-10-19T06:53:20.228Z,12.89
2023-10-19T06:55:46.979Z,12.85
2023-10-19T06:58:13.710Z,12.95
2023-10-19T07:00:40.400Z,12.88
2023-10-19T07:03:07.092Z,13.05
2023-10-19T07:05:33.737Z,13.09
2023-10-19T07:08:00.352Z,13.40
2023-10-19T07:10:27.055Z,13.64
2023-10-19T07:12:53.703Z,13.70
2023-10-19T07:15:20.381Z,13.81
2023-10-19T07:17:47.069Z,13.73
2023-10-19T07:20:13.743Z,13.95
2023-10-19T07:22:40.388Z,14.06
2023-10-19T07:25:07.098Z,14.21
2023-10-19T07:27:38.245Z,14.04
2023-10-19T07:30:05.396Z,14.16
2023-10-19T07:32:32.247Z,14.14
2023-10-19T07:34:58.980Z,14.24
2023-10-19T07:37:25.797Z,14.30
2023-10-19T07:39:52.481Z,13.92
2023-10-19T07:42:19.120Z,14.40
2023-10-19T07:44:45.749Z,14.86
2023-10-19T07:47:12.414Z,15.32
2023-10-19T07:49:39.117Z,15.48
2023-10-19T07:52:05.747Z,15.82
2023-10-19T07:54:32.653Z,15.75
2023-10-19T07:56:59.462Z,15.88
2023-10-19T07:59:26.074Z,16.33
2023-10-19T08:01:52.884Z,16.65
2023-10-19T08:04:19.583Z,16.83
2023-10-19T08:06:46.234Z,17.09
2023-10-19T08:09:12.923Z,16.84
2023-10-19T08:11:39.534Z,17.00
2023-10-19T08:14:06.212Z,17.12
2023-10-19T08:16:32.943Z,17.54
2023-10-19T08:18:59.587Z,17.69
2023-10-19T08:21:26.212Z,17.44
2023-10-19T08:23:52.919Z,17.78
2023-10-19T08:26:19.577Z,17.68
2023-10-19T08:28:46.283Z,17.98
2023-10-19T08:31:12.996Z,18.02
2023-10-19T08:33:39.656Z,18.03
2023-10-19T08:36:06.350Z,18.13
2023-10-19T08:38:33.085Z,18.25
2023-10-19T08:40:59.765Z,18.25
2023-10-19T08:43:26.448Z,18.36
2023-10-19T08:45:53.148Z,18.25
2023-10-19T08:48:19.807Z,18.19
2023-10-19T08:50:46.427Z,18.57
2023-10-19T08:53:13.163Z,18.60
2023-10-19T08:55:48.438Z,18.66
2023-10-19T08:58:17.003Z,18.66
2023-10-19T09:00:44.492Z,18.76
2023-10-19T09:03:12.866Z,18.73
2023-10-19T09:05:39.622Z,18.73
2023-10-19T09:08:06.348Z,18.67
2023-10-19T09:10:33.073Z,18.68
2023-10-19T09:12:59.844Z,18.91
2023-10-19T09:15:26.471Z,19.08
2023-10-19T09:17:53.182Z,19.16
2023-10-19T09:20:19.879Z,18.92
2023-10-19T09:22:46.510Z,19.06
2023-10-19T09:25:13.119Z,18.88
2023-10-19T09:27:39.785Z,19.11
2023-10-19T09:30:06.428Z,19.25
2023-10-19T09:32:33.078Z,19.71
2023-10-19T09:34:59.784Z,19.89
2023-10-19T09:37:26.406Z,19.83
2023-10-19T09:39:53.009Z,19.74
2023-10-19T09:42:19.685Z,20.37
2023-10-19T09:44:46.288Z,20.89
2023-10-19T09:47:12.993Z,20.74
2023-10-19T09:49:39.788Z,21.05
2023-10-19T09:52:10.047Z,21.02
2023-10-19T09:54:36.991Z,20.88
2023-10-19T09:57:03.674Z,20.05
2023-10-19T09:59:30.294Z,20.33
2023-10-19T10:01:56.988Z,20.69
2023-10-19T10:04:23.816Z,20.67
2023-10-19T10:06:50.454Z,20.93
2023-10-19T10:09:17.065Z,21.31
2023-10-19T10:11:43.774Z,21.47
2023-10-19T10:14:10.482Z,21.24
2023-10-19T10:16:37.318Z,21.17
2023-10-19T10:19:04.082Z,21.52
2023-10-19T10:21:30.696Z,21.66
2023-10-19T10:23:57.325Z,21.60
2023-10-19T10:26:24.006Z,21.54
2023-10-19T10:28:53.435Z,21.84
2023-10-19T10:31:21.342Z,21.91
2023-10-19T10:33:48.041Z,22.22
2023-10-19T10:36:14.666Z,22.41
2023-10-19T10:38:41.288Z,22.14
2023-10-19T10:41:08.024Z,22.36
2023-10-19T10:43:34.729Z,22.50
2023-10-19T10:46:01.413Z,22.62
2023-10-19T10:48:28.138Z,22.57
2023-10-19T10:50:55.790Z,22.62
2023-10-19T10:53:23.622Z,22.68
2023-10-19T10:55:50.347Z,22.93
2023-10-19T10:58:17.046Z,22.97
2023-10-19T11:00:43.709Z,22.97
2023-10-19T11:03:10.413Z,22.86
2023-10-19T11:05:37.095Z,22.57
2023-10-19T11:08:03.886Z,22.60
2023-10-19T11:10:30.767Z,22.51
2023-10-19T11:12:57.453Z,22.36
2023-10-19T11:15:24.065Z,22.31
2023-10-19T11:17:50.736Z,22.45
2023-10-19T11:20:17.372Z,22.58
2023-10-19T11:22:44.053Z,22.53
2023-10-19T11:25:10.720Z,22.51
2023-10-19T11:27:37.357Z,22.54
2023-10-19T11:30:03.974Z,22.62
2023-10-19T11:32:30.670Z,22.86
2023-10-19T11:34:57.314Z,22.65
2023-10-19T11:37:23.983Z,22.59
2023-10-19T11:39:50.648Z,22.59
2023-10-19T11:42:17.258Z,22.96
2023-10-19T11:44:43.912Z,23.45
2023-10-19T11:47:10.712Z,23.73
2023-10-19T11:49:37.464Z,23.90
2023-10-19T11:52:04.087Z,24.04
2023-10-19T11:54:31.017Z,24.49
2023-10-19T11:56:57.750Z,24.83
2023-10-19T11:59:24.470Z,24.93
2023-10-19T12:01:51.364Z,24.55
2023-10-19T12:04:18.132Z,24.46
2023-10-19T12:06:44.759Z,24.07
2023-10-19T12:09:11.472Z,23.63
2023-10-19T12:11:38.078Z,23.48
2023-10-19T12:14:04.717Z,23.61
2023-10-19T12:16:31.470Z,23.63
2023-10-19T12:18:58.110Z,23.26
2023-10-19T12:21:24.750Z,23.49
2023-10-19T12:23:51.436Z,23.26
2023-10-19T12:26:18.066Z,23.25
2023-10-19T12:28:46.984Z,23.26
2023-10-19T12:31:14.413Z,22.63
2023-10-19T12:33:41.089Z,22.65
2023-10-19T12:36:07.769Z,22.88
2023-10-19T12:38:34.485Z,23.02
2023-10-19T12:41:01.135Z,22.94
2023-10-19T12:43:27.818Z,22.90
2023-10-19T12:45:54.538Z,22.96
2023-10-19T12:48:21.238Z,23.07
2023-10-19T12:50:47.838Z,22.98
2023-10-19T12:53:14.541Z,22.80
2023-10-19T12:55:41.180Z,23.16
2023-10-19T12:58:07.825Z,23.58
2023-10-19T13:00:34.489Z,24.26
2023-10-19T13:03:01.334Z,24.71
2023-10-19T13:05:28.072Z,24.95
2023-10-19T13:07:54.768Z,24.16
2023-10-19T13:10:21.387Z,23.71
2023-10-19T13:12:47.997Z,24.29
2023-10-19T13:15:14.690Z,24.30
2023-10-19T13:17:41.606Z,23.59
2023-10-19T13:20:08.348Z,23.33
2023-10-19T13:22:35.162Z,23.77
2023-10-19T13:25:01.835Z,24.09
2023-10-19T13:27:28.440Z,24.20
2023-10-19T13:29:55.117Z,23.52
2023-10-19T13:32:21.868Z,23.45
2023-10-19T13:34:48.569Z,23.59
2023-10-19T13:37:15.243Z,23.96
2023-10-19T13:39:41.915Z,24.22
2023-10-19T13:42:08.545Z,24.76
2023-10-19T13:44:35.252Z,24.57
2023-10-19T13:47:01.911Z,24.31
2023-10-19T13:49:29.438Z,24.36
2023-10-19T13:51:56.931Z,24.42
2023-10-19T13:54:23.555Z,23.97
2023-10-19T13:56:50.210Z,24.20
2023-10-19T13:59:16.942Z,24.37
2023-10-19T14:01:43.681Z,24.58
2023-10-19T14:04:10.499Z,24.72
2023-10-19T14:06:37.241Z,24.58
2023-10-19T14:09:03.850Z,24.52
2023-10-19T14:11:30.483Z,24.33
2023-10-19T14:13:57.214Z,24.23
2023-10-19T14:16:23.864Z,24.14
2023-10-19T14:18:50.500Z,23.97
2023-10-19T14:21:17.169Z,23.94
2023-10-19T14:23:43.894Z,23.86
2023-10-19T14:26:10.671Z,23.69
2023-10-19T14:28:37.541Z,23.85
2023-10-19T14:31:04.221Z,23.86
2023-10-19T14:33:30.874Z,24.18
2023-10-19T14:35:57.585Z,24.49
2023-10-19T14:38:24.195Z,23.57
2023-10-19T14:40:52.397Z,23.79
2023-10-19T14:43:19.113Z,23.66
2023-10-19T14:45:45.735Z,23.98
2023-10-19T14:48:12.482Z,24.01
2023-10-19T14:50:39.230Z,24.04
2023-10-19T14:53:05.997Z,24.05
2023-10-19T14:55:32.715Z,23.98
2023-10-19T14:57:59.360Z,24.03
2023-10-19T15:00:25.973Z,23.78
2023-10-19T15:02:52.638Z,23.87
2023-10-19T15:05:19.437Z,23.86
2023-10-19T15:07:46.186Z,23.78
2023-10-19T15:10:12.962Z,23.58
2023-10-19T15:12:39.632Z,23.27
2023-10-19T15:15:06.244Z,23.08
2023-10-19T15:17:32.922Z,23.01
2023-10-19T15:19:59.694Z,23.13
2023-10-19T15:22:26.349Z,23.17
2023-10-19T15:24:52.993Z,22.96
2023-10-19T15:27:19.691Z,22.75
2023-10-19T15:29:46.307Z,22.72
2023-10-19T15:32:12.948Z,22.73
2023-10-19T15:34:39.684Z,22.66
2023-10-19T15:37:06.339Z,22.64
2023-10-19T15:39:32.960Z,22.45
2023-10-19T15:41:59.636Z,22.47
2023-10-19T15:44:26.254Z,22.55
2023-10-19T15:46:52.884Z,22.21
2023-10-19T15:49:19.560Z,22.32
2023-10-19T15:51:46.170Z,22.32
2023-10-19T15:54:12.805Z,22.19
2023-10-19T15:56:39.501Z,22.09
2023-10-19T15:59:06.169Z,21.80
2023-10-19T16:01:32.881Z,21.78
2023-10-19T16:03:59.681Z,21.76
2023-10-19T16:06:26.445Z,21.74
2023-10-19T16:08:53.081Z,21.69
2023-10-19T16:11:19.783Z,21.57
2023-10-19T16:13:46.498Z,21.48
2023-10-19T16:16:13.173Z,21.41
2023-10-19T16:18:39.848Z,21.18
2023-10-19T16:21:06.452Z,21.12
2023-10-19T16:23:33.058Z,20.99
2023-10-19T16:26:02.833Z,21.09
2023-10-19T16:28:30.898Z,21.07
2023-10-19T16:30:57.571Z,21.00
2023-10-19T16:33:24.281Z,20.94
2023-10-19T16:35:50.930Z,21.06
2023-10-19T16:38:17.572Z,20.83
2023-10-19T16:40:44.363Z,20.79
2023-10-19T16:43:10.974Z,20.73
2023-10-19T16:45:37.673Z,20.78
2023-10-19T16:48:04.412Z,20.75
2023-10-19T16:50:31.064Z,20.75
2023-10-19T16:52:57.720Z,20.62
2023-10-19T16:55:24.396Z,20.51
2023-10-19T16:57:51.018Z,20.46
2023-10-19T17:00:17.674Z,20.54
2023-10-19T17:02:44.530Z,20.57
2023-10-19T17:05:11.324Z,20.56
2023-10-19T17:07:37.955Z,20.63
2023-10-19T17:10:04.618Z,20.69
2023-10-19T17:12:31.225Z,20.74
2023-10-19T17:14:57.840Z,20.58
2023-10-19T17:17:24.566Z,20.69
2023-10-19T17:19:51.351Z,20.74
2023-10-19T17:22:18.040Z,20.60
2023-10-19T17:24:44.723Z,20.57
2023-10-19T17:27:11.360Z,20.47
2023-10-19T17:29:37.960Z,20.45
2023-10-19T17:32:04.704Z,20.49
2023-10-19T17:34:31.505Z,20.56
2023-10-19T17:36:58.235Z,20.47
2023-10-19T17:39:24.932Z,20.45
2023-10-19T17:41:51.548Z,20.38
2023-10-19T17:44:18.259Z,20.44
2023-10-19T17:46:45.136Z,20.45
2023-10-19T17:49:11.841Z,20.32
2023-10-19T17:51:38.523Z,20.34
2023-10-19T17:54:05.216Z,20.38
2023-10-19T17:56:31.873Z,20.33
2023-10-19T17:58:59.218Z,20.39
2023-10-19T18:01:26.149Z,20.49
2023-10-19T18:03:52.980Z,20.39
2023-10-19T18:06:19.662Z,20.36
2023-10-19T18:08:46.372Z,20.35
2023-10-19T18:11:13.169Z,20.05
2023-10-19T18:13:40.030Z,20.17
2023-10-19T18:16:06.810Z,20.14
2023-10-19T18:18:33.492Z,20.15
2023-10-19T18:21:00.125Z,20.16
2023-10-19T18:23:26.855Z,20.22
2023-10-19T18:25:53.566Z,20.34
2023-10-19T18:28:20.230Z,20.23
2023-10-19T18:30:46.903Z,19.93
2023-10-19T18:33:13.615Z,19.88
2023-10-19T18:35:40.356Z,19.79
2023-10-19T18:38:07.274Z,20.04
2023-10-19T18:40:35.261Z,20.08
2023-10-19T18:43:01.956Z,20.13
2023-10-19T18:45:28.676Z,20.15
2023-10-19T18:47:55.388Z,19.63
2023-10-19T18:50:33.549Z,19.76
2023-10-19T18:53:01.653Z,19.85
2023-10-19T18:55:28.273Z,19.90
2023-10-19T18:57:54.912Z,19.89
2023-10-19T19:00:23.722Z,19.82
2023-10-19T19:02:50.362Z,19.78
2023-10-19T19:05:17.071Z,19.83
2023-10-19T19:07:43.765Z,19.81
2023-10-19T19:10:10.397Z,19.70
2023-10-19T19:12:37.044Z,19.72
2023-10-19T19:15:03.728Z,19.74
2023-10-19T19:17:30.410Z,19.79
2023-10-19T19:19:57.131Z,19.65
2023-10-19T19:22:23.822Z,19.41
2023-10-19T19:24:50.439Z,19.43
2023-10-19T19:27:17.059Z,19.35
2023-10-19T19:29:43.727Z,19.28
2023-10-19T19:32:10.432Z,19.15
2023-10-19T19:34:37.120Z,19.07
2023-10-19T19:37:03.786Z,18.96
2023-10-19T19:39:30.456Z,18.98
2023-10-19T19:41:57.169Z,19.05
2023-10-19T19:44:23.951Z,19.18
2023-10-19T19:46:50.727Z,19.12
2023-10-19T19:49:17.383Z,18.91
2023-10-19T19:51:44.066Z,18.93
2023-10-19T19:54:10.697Z,18.84
2023-10-19T19:56:37.317Z,18.97
2023-10-19T19:59:04.019Z,19.04
2023-10-19T20:01:30.667Z,19.05
2023-10-19T20:03:57.385Z,18.94
2023-10-19T20:06:24.114Z,18.62
2023-10-19T20:08:50.725Z,18.44
2023-10-19T20:11:17.382Z,18.62
2023-10-19T20:13:44.074Z,18.80
2023-10-19T20:16:10.724Z,18.82
2023-10-19T20:18:37.431Z,18.60
2023-10-19T20:21:04.138Z,18.72
2023-10-19T20:23:30.784Z,18.68
2023-10-19T20:25:57.431Z,18.42
2023-10-19T20:28:24.109Z,18.42
2023-10-19T20:30:50.722Z,18.30
2023-10-19T20:33:17.379Z,18.47
2023-10-19T20:35:44.070Z,18.58
2023-10-19T20:38:10.743Z,18.57
2023-10-19T20:40:38.412Z,18.62
2023-10-19T20:43:05.138Z,18.64
2023-10-19T20:45:31.755Z,18.72
2023-10-19T20:47:58.432Z,18.56
2023-10-19T20:50:25.310Z,18.52
2023-10-19T20:52:51.978Z,18.45
2023-10-19T20:55:18.605Z,18.35
2023-10-19T20:57:45.285Z,18.30
2023-10-19T21:00:11.921Z,18.28
2023-10-19T21:02:38.592Z,18.02
2023-10-19T21:05:05.377Z,18.28
2023-10-19T21:07:32.029Z,18.17
2023-10-19T21:09:58.637Z,17.74
2023-10-19T21:12:25.304Z,17.86
2023-10-19T21:14:51.945Z,18.15
2023-10-19T21:17:18.631Z,18.19
2023-10-19T21:19:45.351Z,18.22
2023-10-19T21:22:11.958Z,18.39
2023-10-19T21:24:38.559Z,18.48
2023-10-19T21:27:05.248Z,18.35
2023-10-19T21:29:32.012Z,18.53
2023-10-19T21:31:58.773Z,18.52
2023-10-19T21:34:25.547Z,18.61
2023-10-19T21:36:52.145Z,18.79
2023-10-19T21:39:18.768Z,18.64
2023-10-19T21:41:45.437Z,18.70
2023-10-19T21:44:12.098Z,18.70
2023-10-19T21:46:38.761Z,18.54
2023-10-19T21:49:05.437Z,18.48
2023-10-19T21:51:32.043Z,18.52
2023-10-19T21:53:58.641Z,18.62
2023-10-19T21:56:25.382Z,18.57
2023-10-19T21:58:52.066Z,18.78
2023-10-19T22:01:18.680Z,18.49
